Time,TemperatureF,DewpointF,PressureIn,WindDirection,WindDirectionDegrees,WindSpeedMPH,WindSpeedGustMPH,Humidity,HourlyPrecipIn,Conditions,Clouds,dailyrainin,SoftwareType,DateUTC
2013-01-23 00:04:00,42.8,41.2,29.88,SW,225,0.0,0.0,94,0.00,CLR,,0.00,WeatherDisplay:10.37,2013-01-23 08:04:00,
2013-01-23 00:09:00,42.8,41.5,29.89,SW,225,1.1,0.0,95,0.00,CLR,,0.00,WeatherDisplay:10.37,2013-01-23 08:09:00,
2013-01-23 00:14:00,42.8,41.5,29.89,West,270,0.0,0.0,95,0.00,CLR,,0.00,WeatherDisplay:10.37,2013-01-23 08:14:00,
2013-01-23 00:19:00,43.0,41.6,29.89,SW,225,1.1,0.0,95,0.00,CLR,,0.00,WeatherDisplay:10.37,2013-01-23 08:19:00,
2013-01-23 00:24:00,42.8,41.5,29.88,South,180,0.0,0.0,95,0.00,CLR,,0.00,WeatherDisplay:10.37,2013-01-23 08:24:00,
2013-01-23 00:29:00,42.8,41.5,29.88,South,180,0.0,0.0,95,0.00,CLR,,0.00,WeatherDisplay:10.37,2013-01-23 08:29:00,
2013-01-23 00:34:00,42.6,41.3,29.88,SW,225,0.0,0.0,95,0.00,CLR,,0.00,WeatherDisplay:10.37,2013-01-23 08:34:00,
2013-01-23 00:39:00,42.4,41.1,29.88,SW,225,0.0,0.0,95,0.00,CLR,,0.00,WeatherDisplay:10.37,2013-01-23 08:39:00,
2013-01-23 00:44:00,42.3,40.7,29.88,South,180,0.0,0.0,94,0.00,CLR,,0.00,WeatherDisplay:10.37,2013-01-23 08:44:00,
2013-01-23 00:49:00,42.1,40.8,29.87,South,180,0.0,0.0,95,0.00,CLR,,0.00,WeatherDisplay:10.37,2013-01-23 08:49:00,
2013-01-23 00:54:00,42.1,40.8,29.87,West,270,0.0,0.0,95,0.00,CLR,,0.00,WeatherDisplay:10.37,2013-01-23 08:54:00,
2013-01-23 00:59:00,42.1,40.8,29.87,SW,225,1.1,0.0,95,0.00,CLR,,0.00,WeatherDisplay:10.37,2013-01-23 08:59:00,
2013-01-23 01:04:00,41.9,40.6,29.87,SW,225,0.0,0.0,95,0.00,CLR,,0.00,WeatherDisplay:10.37,2013-01-23 09:04:00,
2013-01-23 01:09:00,41.7,40.4,29.87,SW,225,1.1,0.0,95,0.00,CLR,,0.00,WeatherDisplay:10.37,2013-01-23 09:09:00,
2013-01-23 01:14:00,41.5,40.2,29.87,SW,225,1.1,0.0,95,0.00,CLR,,0.00,WeatherDisplay:10.37,2013-01-23 09:14:00,
2013-01-23 01:19:00,41.5,40.2,29.87,SW,225,0.0,0.0,95,0.00,CLR,,0.00,WeatherDisplay:10.37,2013-01-23 09:19:00,
2013-01-23 01:24:00,41.4,40.0,29.87,SW,225,0.0,0.0,95,0.00,CLR,,0.00,WeatherDisplay:10.37,2013-01-23 09:24:00,
2013-01-23 01:29:00,41.4,40.0,29.87,SW,225,0.0,0.0,95,0.00,CLR,,0.00,WeatherDisplay:10.37,2013-01-23 09:29:00,
2013-01-23 01:34:00,41.4,40.0,29.86,NE,45,1.1,0.0,95,0.00,CLR,,0.00,WeatherDisplay:10.37,2013-01-23 09:34:00,
2013-01-23 01:39:00,41.4,40.0,29.86,SW,225,1.1,1.6,95,0.00,CLR,,0.00,WeatherDisplay:10.37,2013-01-23 09:39:00,
2013-01-23 01:44:00,41.2,40.1,29.86,SW,225,0.0,0.0,96,0.00,CLR,,0.00,WeatherDisplay:10.37,2013-01-23 09:44:00,
2013-01-23 01:49:00,41.2,40.1,29.86,West,270,0.0,0.0,96,0.00,CLR,,0.00,WeatherDisplay:10.37,2013-01-23 09:49:00,
2013-01-23 01:55:00,41.2,40.1,29.86,West,270,0.0,0.0,96,0.00,CLR,,0.00,WeatherDisplay:10.37,2013-01-23 09:55:00,
2013-01-23 02:00:00,41.4,40.3,29.85,SW,225,3.5,0.0,96,0.00,CLR,,0.00,WeatherDisplay:10.37,2013-01-23 10:00:00,
2013-01-23 02:05:00,41.2,40.1,29.85,SE,135,0.0,0.0,96,0.00,CLR,,0.00,WeatherDisplay:10.37,2013-01-23 10:05:00,
2013-01-23 02:10:00,41.0,39.9,29.85,SW,225,2.3,0.0,96,0.00,CLR,,0.00,WeatherDisplay:10.37,2013-01-23 10:10:00,
2013-01-23 02:15:00,41.0,39.9,29.85,SW,225,1.1,1.1,96,0.00,CLR,,0.00,WeatherDisplay:10.37,2013-01-23 10:15:00,
2013-01-23 02:20:00,41.0,39.9,29.86,SW,225,2.3,2.3,96,0.00,CLR,,0.00,WeatherDisplay:10.37,2013-01-23 10:20:00,
2013-01-23 02:25:00,41.2,40.4,29.85,SW,225,3.5,3.5,97,0.00,CLR,,0.00,WeatherDisplay:10.37,2013-01-23 10:25:00,
2013-01-23 02:30:00,41.4,40.6,29.86,SW,225,2.3,0.0,97,0.00,CLR,,0.00,WeatherDisplay:10.37,2013-01-23 10:30:00,
2013-01-23 02:35:00,41.4,40.6,29.85,North,0,1.1,0.0,97,0.00,CLR,,0.00,WeatherDisplay:10.37,2013-01-23 10:35:00,
2013-01-23 02:40:00,41.4,40.6,29.86,NE,45,1.1,0.0,97,0.00,CLR,,0.00,WeatherDisplay:10.37,2013-01-23 10:40:00,
2013-01-23 02:45:00,41.4,40.6,29.85,West,270,0.0,0.0,97,0.00,CLR,,0.00,WeatherDisplay:10.37,2013-01-23 10:45:00,
2013-01-23 02:50:00,41.5,40.8,29.85,North,0,1.1,0.0,97,0.00,CLR,,0.00,WeatherDisplay:10.37,2013-01-23 10:50:00,
2013-01-23 02:55:00,41.7,40.9,29.85,NW,315,1.1,0.0,97,0.00,CLR,,0.00,WeatherDisplay:10.37,2013-01-23 10:55:00,
2013-01-23 03:00:00,41.7,40.9,29.85,SW,225,1.1,0.0,97,0.00,CLR,,0.00,WeatherDisplay:10.37,2013-01-23 11:00:00,
2013-01-23 03:05:00,41.5,40.8,29.85,SW,225,1.1,0.0,97,0.00,CLR,,0.00,WeatherDisplay:10.37,2013-01-23 11:05:00,
2013-01-23 03:10:00,41.5,40.8,29.84,SW,225,0.0,0.0,97,0.00,CLR,,0.00,WeatherDisplay:10.37,2013-01-23 11:10:00,
2013-01-23 03:15:00,41.5,40.8,29.84,SW,225,1.1,0.0,97,0.00,CLR,,0.00,WeatherDisplay:10.37,2013-01-23 11:15:00,
2013-01-23 03:20:00,41.5,40.8,29.84,SW,225,0.0,0.0,97,0.00,CLR,,0.00,WeatherDisplay:10.37,2013-01-23 11:20:00,
2013-01-23 03:25:00,41.7,40.9,29.85,SW,225,1.1,0.0,97,0.00,CLR,,0.00,WeatherDisplay:10.37,2013-01-23 11:25:00,
2013-01-23 03:30:00,41.7,40.9,29.84,SW,225,0.0,0.0,97,0.00,CLR,,0.00,WeatherDisplay:10.37,2013-01-23 11:30:00,
2013-01-23 03:35:00,41.7,40.9,29.84,SW,225,0.0,0.0,97,0.00,CLR,,0.00,WeatherDisplay:10.37,2013-01-23 11:35:00,
2013-01-23 03:40:00,41.9,41.1,29.84,SW,225,0.0,0.0,97,0.00,CLR,,0.00,WeatherDisplay:10.37,2013-01-23 11:40:00,
2013-01-23 03:45:00,41.9,41.1,29.84,South,180,1.1,0.0,97,0.00,CLR,,0.00,WeatherDisplay:10.37,2013-01-23 11:45:00,
2013-01-23 03:50:00,41.9,41.1,29.84,South,180,0.0,0.0,97,0.00,CLR,,0.00,WeatherDisplay:10.37,2013-01-23 11:50:00,
2013-01-23 03:55:00,41.7,40.9,29.84,South,180,0.0,0.0,97,0.00,CLR,,0.00,WeatherDisplay:10.37,2013-01-23 11:55:00,
2013-01-23 04:00:00,41.7,40.9,29.84,South,180,1.1,0.0,97,0.00,CLR,,0.00,WeatherDisplay:10.37,2013-01-23 12:00:00,
2013-01-23 04:05:00,41.7,40.9,29.84,South,180,0.0,0.0,97,0.00,CLR,,0.00,WeatherDisplay:10.37,2013-01-23 12:05:00,
2013-01-23 04:10:00,41.9,41.1,29.84,South,180,0.0,0.0,97,0.00,CLR,,0.00,WeatherDisplay:10.37,2013-01-23 12:10:00,
2013-01-23 04:15:00,41.9,41.1,29.84,South,180,1.1,0.0,97,0.00,CLR,,0.00,WeatherDisplay:10.37,2013-01-23 12:15:00,
2013-01-23 04:20:00,41.9,41.1,29.84,West,270,3.5,0.0,97,0.00,CLR,,0.00,WeatherDisplay:10.37,2013-01-23 12:20:00,
2013-01-23 04:25:00,41.9,41.1,29.85,SW,225,2.3,2.3,97,0.00,CLR,,0.00,WeatherDisplay:10.37,2013-01-23 12:25:00,
2013-01-23 04:30:00,42.1,41.3,29.85,SW,225,2.3,2.3,97,0.00,CLR,,0.00,WeatherDisplay:10.37,2013-01-23 12:30:00,
2013-01-23 04:35:00,42.1,41.3,29.84,South,180,1.1,0.0,97,0.00,CLR,,0.00,WeatherDisplay:10.37,2013-01-23 12:35:00,
2013-01-23 04:40:00,42.1,41.3,29.83,NE,45,2.3,2.3,97,0.00,CLR,,0.00,WeatherDisplay:10.37,2013-01-23 12:40:00,
2013-01-23 04:45:00,42.1,41.3,29.84,West,270,1.1,1.1,97,0.00,CLR,,0.00,WeatherDisplay:10.37,2013-01-23 12:45:00,
2013-01-23 04:50:00,42.3,41.7,29.83,SW,225,1.1,0.0,98,0.00,CLR,,0.00,WeatherDisplay:10.37,2013-01-23 12:50:00,
2013-01-23 04:55:00,42.3,41.7,29.83,NW,315,1.1,0.0,98,0.00,CLR,,0.00,WeatherDisplay:10.37,2013-01-23 12:55:00,
2013-01-23 05:00:00,42.3,41.5,29.83,NW,315,0.0,0.0,97,0.00,CLR,,0.00,WeatherDisplay:10.37,2013-01-23 13:00:00,
2013-01-23 05:05:00,42.3,41.5,29.83,NW,315,1.1,1.1,97,0.00,CLR,,0.00,WeatherDisplay:10.37,2013-01-23 13:05:00,
2013-01-23 05:10:00,42.3,41.5,29.84,NE,45,1.1,0.0,97,0.00,CLR,,0.00,WeatherDisplay:10.37,2013-01-23 13:10:00,
2013-01-23 05:15:00,42.3,41.7,29.84,SW,225,0.0,0.0,98,0.00,CLR,,0.00,WeatherDisplay:10.37,2013-01-23 13:15:00,
2013-01-23 05:20:00,42.3,41.7,29.84,South,180,1.1,0.0,98,0.00,CLR,,0.00,WeatherDisplay:10.37,2013-01-23 13:20:00,
2013-01-23 05:25:00,42.1,41.3,29.85,South,180,0.0,0.0,97,0.00,CLR,,0.00,WeatherDisplay:10.37,2013-01-23 13:25:00,
2013-01-23 05:30:00,42.1,41.3,29.85,SW,225,0.0,0.0,97,0.00,CLR,,0.00,WeatherDisplay:10.37,2013-01-23 13:30:00,
2013-01-23 05:35:00,42.3,41.7,29.85,West,270,0.0,0.0,98,0.00,CLR,,0.00,WeatherDisplay:10.37,2013-01-23 13:35:00,
2013-01-23 05:40:00,42.3,41.7,29.85,SW,225,0.0,0.0,98,0.00,CLR,,0.00,WeatherDisplay:10.37,2013-01-23 13:40:00,
2013-01-23 05:45:00,42.3,41.7,29.84,SE,135,0.0,0.0,98,0.00,CLR,,0.00,WeatherDisplay:10.37,2013-01-23 13:45:00,
2013-01-23 05:50:00,42.3,41.5,29.84,SE,135,0.0,0.0,97,0.00,CLR,,0.00,WeatherDisplay:10.37,2013-01-23 13:50:00,
2013-01-23 05:55:00,42.3,41.5,29.84,NE,45,1.1,0.0,97,0.00,CLR,,0.00,WeatherDisplay:10.37,2013-01-23 13:55:00,
2013-01-23 06:00:00,42.3,41.7,29.84,NW,315,0.0,0.0,98,0.00,CLR,,0.00,WeatherDisplay:10.37,2013-01-23 14:00:00,
2013-01-23 06:05:00,42.3,41.5,29.83,NW,315,0.0,0.0,97,0.00,CLR,,0.00,WeatherDisplay:10.37,2013-01-23 14:05:00,
2013-01-23 06:10:00,42.3,41.5,29.84,South,180,0.0,0.0,97,0.00,CLR,,0.00,WeatherDisplay:10.37,2013-01-23 14:10:00,
2013-01-23 06:16:00,42.1,41.3,29.83,SW,225,1.1,0.0,97,0.00,CLR,,0.00,WeatherDisplay:10.37,2013-01-23 14:16:00,
2013-01-23 06:21:00,42.1,41.3,29.83,SW,225,0.0,0.0,97,0.00,CLR,,0.00,WeatherDisplay:10.37,2013-01-23 14:21:00,
2013-01-23 06:26:00,42.1,41.3,29.83,South,180,1.1,0.0,97,0.00,CLR,,0.00,WeatherDisplay:10.37,2013-01-23 14:26:00,
2013-01-23 06:31:00,42.1,41.6,29.84,SW,225,1.1,0.0,98,0.00,CLR,,0.00,WeatherDisplay:10.37,2013-01-23 14:31:00,
2013-01-23 06:36:00,42.3,41.7,29.84,South,180,1.1,0.0,98,0.00,CLR,,0.00,WeatherDisplay:10.37,2013-01-23 14:36:00,
2013-01-23 06:41:00,42.3,41.7,29.85,South,180,0.0,0.0,98,0.00,CLR,,0.00,WeatherDisplay:10.37,2013-01-23 14:41:00,
2013-01-23 06:46:00,42.1,41.6,29.85,West,270,1.1,0.0,98,0.00,CLR,,0.00,WeatherDisplay:10.37,2013-01-23 14:46:00,
2013-01-23 06:51:00,42.3,41.7,29.84,NW,315,1.1,0.0,98,0.00,CLR,,0.00,WeatherDisplay:10.37,2013-01-23 14:51:00,
2013-01-23 06:56:00,42.3,41.7,29.85,NW,315,0.0,0.0,98,0.01,RA,,0.01,WeatherDisplay:10.37,2013-01-23 14:56:00,
2013-01-23 07:01:00,42.3,41.7,29.84,SW,225,0.0,0.0,98,0.01,RA,,0.01,WeatherDisplay:10.37,2013-01-23 15:01:00,
2013-01-23 07:06:00,42.4,41.9,29.84,NW,315,1.1,0.0,98,0.01,,,0.01,WeatherDisplay:10.37,2013-01-23 15:06:00,
2013-01-23 07:11:00,42.4,41.9,29.84,NW,315,0.0,0.0,98,0.01,CLR,,0.01,WeatherDisplay:10.37,2013-01-23 15:11:00,
2013-01-23 07:16:00,42.4,41.9,29.84,NW,315,0.0,0.0,98,0.01,CLR,,0.01,WeatherDisplay:10.37,2013-01-23 15:16:00,
2013-01-23 07:21:00,42.3,41.7,29.84,South,180,1.1,0.0,98,0.01,CLR,,0.01,WeatherDisplay:10.37,2013-01-23 15:21:00,
2013-01-23 07:26:00,42.3,41.7,29.84,South,180,0.0,0.0,98,0.01,CLR,,0.01,WeatherDisplay:10.37,2013-01-23 15:26:00,
2013-01-23 07:31:00,42.3,41.7,29.84,South,180,0.0,0.0,98,0.01,CLR,,0.01,WeatherDisplay:10.37,2013-01-23 15:31:00,
2013-01-23 07:36:00,42.3,41.7,29.84,NE,45,1.1,0.0,98,0.01,CLR,,0.01,WeatherDisplay:10.37,2013-01-23 15:36:00,
2013-01-23 07:41:00,42.3,41.7,29.85,NE,45,0.0,0.0,98,0.01,CLR,,0.01,WeatherDisplay:10.37,2013-01-23 15:41:00,
2013-01-23 07:46:00,42.4,41.9,29.84,NE,45,0.0,0.0,98,0.01,CLR,,0.01,WeatherDisplay:10.37,2013-01-23 15:46:00,
2013-01-23 07:51:00,42.4,41.9,29.84,NE,45,1.1,0.0,98,0.01,CLR,,0.01,WeatherDisplay:10.37,2013-01-23 15:51:00,
2013-01-23 07:56:00,42.4,41.9,29.84,NW,315,1.1,0.0,98,0.01,RA,,0.02,WeatherDisplay:10.37,2013-01-23 15:56:00,
2013-01-23 08:01:00,42.4,41.9,29.84,East,90,1.1,0.0,98,0.01,RA,,0.02,WeatherDisplay:10.37,2013-01-23 16:01:00,
2013-01-23 08:06:00,42.4,41.9,29.84,South,180,0.0,0.0,98,0.02,RA,,0.04,WeatherDisplay:10.37,2013-01-23 16:06:00,
2013-01-23 08:11:00,42.4,41.9,29.84,West,270,0.0,0.0,98,0.02,RA,,0.04,WeatherDisplay:10.37,2013-01-23 16:11:00,
2013-01-23 08:16:00,42.4,41.9,29.85,North,0,2.3,0.0,98,0.02,CLR,,0.04,WeatherDisplay:10.37,2013-01-23 16:16:00,
2013-01-23 08:21:00,42.6,42.1,29.85,North,0,1.1,0.0,98,0.02,CLR,,0.04,WeatherDisplay:10.37,2013-01-23 16:21:00,
2013-01-23 08:26:00,42.8,42.3,29.85,West,270,1.1,0.0,98,0.04,RA,,0.05,WeatherDisplay:10.37,2013-01-23 16:26:00,
2013-01-23 08:31:00,42.8,42.3,29.85,NW,315,1.1,0.0,98,0.05,RA,,0.06,WeatherDisplay:10.37,2013-01-23 16:31:00,
2013-01-23 08:36:00,43.0,42.5,29.85,West,270,1.1,0.0,98,0.05,RA,,0.06,WeatherDisplay:10.37,2013-01-23 16:36:00,
2013-01-23 08:41:00,43.0,42.5,29.85,NW,315,1.1,0.0,98,0.05,,,0.06,WeatherDisplay:10.37,2013-01-23 16:41:00,
2013-01-23 08:46:00,43.3,42.8,29.85,West,270,0.0,0.0,98,0.05,CLR,,0.06,WeatherDisplay:10.37,2013-01-23 16:46:00,
2013-01-23 08:51:00,43.3,42.8,29.85,SW,225,0.0,0.0,98,0.05,CLR,,0.06,WeatherDisplay:10.37,2013-01-23 16:51:00,
2013-01-23 08:56:00,43.5,43.0,29.85,SW,225,0.0,0.0,98,0.04,CLR,,0.06,WeatherDisplay:10.37,2013-01-23 16:56:00,
2013-01-23 09:01:00,43.5,43.0,29.86,South,180,1.1,0.0,98,0.04,CLR,,0.06,WeatherDisplay:10.37,2013-01-23 17:01:00,
2013-01-23 09:06:00,43.5,43.0,29.86,SE,135,1.1,0.0,98,0.02,CLR,,0.06,WeatherDisplay:10.37,2013-01-23 17:06:00,
2013-01-23 09:11:00,43.5,43.0,29.86,SW,225,1.1,1.1,98,0.02,CLR,,0.06,WeatherDisplay:10.37,2013-01-23 17:11:00,
2013-01-23 09:16:00,43.7,43.2,29.87,North,0,1.1,0.0,98,0.02,CLR,,0.06,WeatherDisplay:10.37,2013-01-23 17:16:00,
2013-01-23 09:21:00,43.7,43.2,29.87,West,270,0.0,0.0,98,0.02,CLR,,0.06,WeatherDisplay:10.37,2013-01-23 17:21:00,
2013-01-23 09:26:00,43.7,43.2,29.87,West,270,1.1,0.0,98,0.01,CLR,,0.06,WeatherDisplay:10.37,2013-01-23 17:26:00,
2013-01-23 09:31:00,43.9,43.4,29.88,North,0,0.0,0.0,98,0.00,CLR,,0.06,WeatherDisplay:10.37,2013-01-23 17:31:00,
2013-01-23 09:36:00,43.9,43.4,29.88,North,0,1.1,0.0,98,0.00,CLR,,0.06,WeatherDisplay:10.37,2013-01-23 17:36:00,
2013-01-23 09:41:00,44.1,43.8,29.88,North,0,0.0,0.0,99,0.00,CLR,,0.06,WeatherDisplay:10.37,2013-01-23 17:41:00,
2013-01-23 09:46:00,44.2,43.7,29.88,North,0,0.0,0.0,98,0.00,CLR,,0.06,WeatherDisplay:10.37,2013-01-23 17:46:00,
2013-01-23 09:51:00,44.2,44.0,29.88,North,0,1.1,0.0,99,0.00,CLR,,0.06,WeatherDisplay:10.37,2013-01-23 17:51:00,
2013-01-23 09:56:00,44.4,44.2,29.88,NW,315,1.1,0.0,99,0.00,CLR,,0.06,WeatherDisplay:10.37,2013-01-23 17:56:00,
2013-01-23 10:01:00,44.6,44.3,29.88,North,0,1.1,0.0,99,0.00,CLR,,0.06,WeatherDisplay:10.37,2013-01-23 18:01:00,
2013-01-23 10:06:00,44.8,44.5,29.88,North,0,1.1,0.0,99,0.00,CLR,,0.06,WeatherDisplay:10.37,2013-01-23 18:06:00,
2013-01-23 10:11:00,44.8,44.5,29.89,NE,45,1.1,1.1,99,0.00,CLR,,0.06,WeatherDisplay:10.37,2013-01-23 18:11:00,
2013-01-23 10:16:00,44.8,44.5,29.88,North,0,1.1,0.0,99,0.00,CLR,,0.06,WeatherDisplay:10.37,2013-01-23 18:16:00,
2013-01-23 10:21:00,45.0,44.7,29.88,NW,315,1.1,0.0,99,0.00,CLR,,0.06,WeatherDisplay:10.37,2013-01-23 18:21:00,
2013-01-23 10:26:00,45.0,44.7,29.89,NW,315,1.1,0.0,99,0.01,RA,,0.07,WeatherDisplay:10.37,2013-01-23 18:26:00,
2013-01-23 10:31:00,45.1,44.9,29.89,NW,315,1.1,0.0,99,0.01,RA,,0.07,WeatherDisplay:10.37,2013-01-23 18:31:00,
2013-01-23 10:36:00,45.1,44.9,29.89,North,0,1.1,0.0,99,0.02,RA,,0.08,WeatherDisplay:10.37,2013-01-23 18:36:00,
2013-01-23 10:41:00,45.1,44.9,29.89,North,0,0.0,0.0,99,0.02,RA,,0.08,WeatherDisplay:10.37,2013-01-23 18:41:00,
2013-01-23 10:46:00,45.1,44.9,29.90,NW,315,1.1,0.0,99,0.02,CLR,,0.08,WeatherDisplay:10.37,2013-01-23 18:46:00,
2013-01-23 10:51:00,45.3,45.1,29.90,NW,315,0.0,0.0,99,0.02,CLR,,0.08,WeatherDisplay:10.37,2013-01-23 18:51:00,
2013-01-23 10:56:00,45.3,45.1,29.90,NW,315,0.0,0.0,99,0.02,CLR,,0.08,WeatherDisplay:10.37,2013-01-23 18:56:00,
2013-01-23 11:01:00,45.5,45.2,29.90,NW,315,0.0,0.0,99,0.02,CLR,,0.08,WeatherDisplay:10.37,2013-01-23 19:01:00,
2013-01-23 11:06:00,45.5,45.2,29.90,North,0,1.1,0.0,99,0.02,CLR,,0.08,WeatherDisplay:10.37,2013-01-23 19:06:00,
2013-01-23 11:11:00,45.5,45.2,29.90,West,270,1.1,0.0,99,0.02,CLR,,0.08,WeatherDisplay:10.37,2013-01-23 19:11:00,
2013-01-23 11:16:00,45.5,45.2,29.90,NE,45,1.1,1.1,99,0.04,RA,,0.09,WeatherDisplay:10.37,2013-01-23 19:16:00,
2013-01-23 11:21:00,45.5,45.2,29.90,NE,45,0.0,0.0,99,0.04,RA,,0.09,WeatherDisplay:10.37,2013-01-23 19:21:00,
2013-01-23 11:26:00,45.7,45.4,29.90,NE,45,0.0,0.0,99,0.04,RA,,0.11,WeatherDisplay:10.37,2013-01-23 19:26:00,
2013-01-23 11:31:00,45.7,45.4,29.90,West,270,1.1,0.0,99,0.04,RA,,0.11,WeatherDisplay:10.37,2013-01-23 19:31:00,
2013-01-23 11:36:00,45.7,45.4,29.90,NE,45,1.1,0.0,99,0.02,CLR,,0.11,WeatherDisplay:10.37,2013-01-23 19:36:00,
2013-01-23 11:41:00,45.7,45.4,29.90,South,180,2.3,2.3,99,0.02,CLR,,0.11,WeatherDisplay:10.37,2013-01-23 19:41:00,
2013-01-23 11:46:00,45.7,45.4,29.90,SE,135,1.1,1.1,99,0.02,CLR,,0.11,WeatherDisplay:10.37,2013-01-23 19:46:00,
2013-01-23 11:51:00,45.7,45.4,29.90,SE,135,1.1,0.0,99,0.02,CLR,,0.11,WeatherDisplay:10.37,2013-01-23 19:51:00,
2013-01-23 11:57:00,45.7,45.4,29.90,South,180,3.5,3.5,99,0.02,CLR,,0.11,WeatherDisplay:10.37,2013-01-23 19:57:00,
2013-01-23 12:02:00,45.7,45.4,29.90,South,180,3.1,3.1,99,0.02,CLR,,0.11,WeatherDisplay:10.37,2013-01-23 20:02:00,
2013-01-23 12:07:00,45.9,45.6,29.90,SW,225,3.5,3.5,99,0.02,CLR,,0.11,WeatherDisplay:10.37,2013-01-23 20:07:00,
2013-01-23 12:12:00,45.9,45.6,29.89,South,180,0.0,0.0,99,0.02,CLR,,0.11,WeatherDisplay:10.37,2013-01-23 20:12:00,
2013-01-23 12:17:00,45.9,45.6,29.90,West,270,1.1,0.0,99,0.01,CLR,,0.11,WeatherDisplay:10.37,2013-01-23 20:17:00,
2013-01-23 12:22:00,46.0,45.8,29.89,NW,315,1.1,0.0,99,0.01,CLR,,0.11,WeatherDisplay:10.37,2013-01-23 20:22:00,
2013-01-23 12:27:00,46.0,45.8,29.89,NE,45,1.1,0.0,99,0.01,RA,,0.12,WeatherDisplay:10.37,2013-01-23 20:27:00,
2013-01-23 12:32:00,46.2,46.0,29.90,NW,315,1.1,0.0,99,0.02,RA,,0.13,WeatherDisplay:10.37,2013-01-23 20:32:00,
2013-01-23 12:37:00,46.2,46.0,29.90,North,0,1.1,0.0,99,0.02,RA,,0.13,WeatherDisplay:10.37,2013-01-23 20:37:00,
2013-01-23 12:42:00,46.2,46.0,29.89,NE,45,0.0,0.0,99,0.02,,,0.13,WeatherDisplay:10.37,2013-01-23 20:42:00,
2013-01-23 12:47:00,46.4,46.1,29.90,South,180,1.1,1.1,99,0.02,CLR,,0.13,WeatherDisplay:10.37,2013-01-23 20:47:00,
2013-01-23 12:52:00,46.6,46.3,29.90,SE,135,1.1,0.0,99,0.02,CLR,,0.13,WeatherDisplay:10.37,2013-01-23 20:52:00,
2013-01-23 12:57:00,46.8,46.5,29.90,West,270,1.1,1.1,99,0.02,CLR,,0.13,WeatherDisplay:10.37,2013-01-23 20:57:00,
2013-01-23 13:02:00,46.8,46.5,29.90,West,270,1.1,0.0,99,0.02,CLR,,0.13,WeatherDisplay:10.37,2013-01-23 21:02:00,
2013-01-23 13:07:00,46.8,46.5,29.90,NW,315,0.0,0.0,99,0.02,CLR,,0.13,WeatherDisplay:10.37,2013-01-23 21:07:00,
2013-01-23 13:12:00,46.9,46.7,29.91,NW,315,0.0,0.0,99,0.02,CLR,,0.13,WeatherDisplay:10.37,2013-01-23 21:12:00,
2013-01-23 13:17:00,46.9,46.7,29.90,NE,45,1.1,0.0,99,0.02,CLR,,0.13,WeatherDisplay:10.37,2013-01-23 21:17:00,
2013-01-23 13:22:00,47.1,46.9,29.91,North,0,0.0,0.0,99,0.02,CLR,,0.13,WeatherDisplay:10.37,2013-01-23 21:22:00,
2013-01-23 13:27:00,47.1,46.9,29.91,NW,315,2.3,0.0,99,0.01,CLR,,0.13,WeatherDisplay:10.37,2013-01-23 21:27:00,
2013-01-23 13:32:00,46.9,46.7,29.91,NW,315,0.0,0.0,99,0.00,CLR,,0.13,WeatherDisplay:10.37,2013-01-23 21:32:00,
2013-01-23 13:37:00,47.1,46.9,29.91,North,0,1.1,0.0,99,0.00,CLR,,0.13,WeatherDisplay:10.37,2013-01-23 21:37:00,
2013-01-23 13:42:00,47.1,46.9,29.91,West,270,0.0,0.0,99,0.00,CLR,,0.13,WeatherDisplay:10.37,2013-01-23 21:42:00,
2013-01-23 13:47:00,47.1,46.9,29.92,South,180,0.0,0.0,99,0.00,CLR,,0.13,WeatherDisplay:10.37,2013-01-23 21:47:00,
2013-01-23 13:52:00,46.9,46.7,29.92,South,180,2.3,0.0,99,0.00,CLR,,0.13,WeatherDisplay:10.37,2013-01-23 21:52:00,
2013-01-23 13:57:00,46.9,46.7,29.93,North,0,1.1,1.1,99,0.01,RA,,0.14,WeatherDisplay:10.37,2013-01-23 21:57:00,
2013-01-23 14:02:00,46.9,46.7,29.93,West,270,3.5,3.5,99,0.02,RA,,0.15,WeatherDisplay:10.37,2013-01-23 22:02:00,
2013-01-23 14:07:00,46.9,46.7,29.94,North,0,2.3,0.0,99,0.02,RA,,0.15,WeatherDisplay:10.37,2013-01-23 22:07:00,
2013-01-23 14:12:00,46.9,46.7,29.94,East,90,1.1,1.1,99,0.02,CLR,,0.15,WeatherDisplay:10.37,2013-01-23 22:12:00,
2013-01-23 14:17:00,47.1,46.9,29.94,West,270,10.4,10.4,99,0.02,CLR,,0.15,WeatherDisplay:10.37,2013-01-23 22:17:00,
2013-01-23 14:22:00,47.1,46.9,29.94,NW,315,4.6,4.6,99,0.02,CLR,,0.15,WeatherDisplay:10.37,2013-01-23 22:22:00,
2013-01-23 14:27:00,47.1,46.9,29.95,SW,225,2.3,0.0,99,0.02,CLR,,0.15,WeatherDisplay:10.37,2013-01-23 22:27:00,
2013-01-23 14:32:00,47.1,46.9,29.95,North,0,8.1,8.1,99,0.02,CLR,,0.15,WeatherDisplay:10.37,2013-01-23 22:32:00,
2013-01-23 14:37:00,47.1,46.9,29.95,East,90,12.7,12.7,99,0.02,CLR,,0.15,WeatherDisplay:10.37,2013-01-23 22:37:00,
2013-01-23 14:42:00,47.1,46.9,29.96,NW,315,5.8,5.8,99,0.02,CLR,,0.15,WeatherDisplay:10.37,2013-01-23 22:42:00,
2013-01-23 14:47:00,47.3,47.0,29.96,East,90,3.5,3.5,99,0.02,CLR,,0.15,WeatherDisplay:10.37,2013-01-23 22:47:00,
2013-01-23 14:52:00,47.3,47.0,29.96,North,0,1.1,0.0,99,0.02,CLR,,0.15,WeatherDisplay:10.37,2013-01-23 22:52:00,
2013-01-23 14:57:00,47.3,47.0,29.97,NE,45,3.5,0.0,99,0.01,CLR,,0.15,WeatherDisplay:10.37,2013-01-23 22:57:00,
2013-01-23 15:02:00,47.3,47.0,29.97,South,180,2.3,0.0,99,0.00,CLR,,0.15,WeatherDisplay:10.37,2013-01-23 23:02:00,
2013-01-23 15:07:00,47.3,47.0,29.97,NE,45,2.3,2.3,99,0.00,CLR,,0.15,WeatherDisplay:10.37,2013-01-23 23:07:00,
2013-01-23 15:12:00,47.3,47.0,29.97,NE,45,1.1,1.6,99,0.00,CLR,,0.15,WeatherDisplay:10.37,2013-01-23 23:12:00,
2013-01-23 15:17:00,47.3,47.0,29.97,North,0,1.1,0.0,99,0.00,CLR,,0.15,WeatherDisplay:10.37,2013-01-23 23:17:00,
2013-01-23 15:22:00,47.3,47.0,29.97,North,0,1.1,1.6,99,0.00,CLR,,0.15,WeatherDisplay:10.37,2013-01-23 23:22:00,
2013-01-23 15:27:00,47.3,47.0,29.98,NE,45,1.1,0.0,99,0.00,CLR,,0.15,WeatherDisplay:10.37,2013-01-23 23:27:00,
2013-01-23 15:32:00,47.3,47.0,29.98,NE,45,2.3,2.3,99,0.00,CLR,,0.15,WeatherDisplay:10.37,2013-01-23 23:32:00,
2013-01-23 15:37:00,47.3,47.0,29.98,NE,45,3.5,3.5,99,0.00,CLR,,0.15,WeatherDisplay:10.37,2013-01-23 23:37:00,
2013-01-23 15:42:00,47.3,47.0,29.98,East,90,3.5,0.0,99,0.00,CLR,,0.15,WeatherDisplay:10.37,2013-01-23 23:42:00,
2013-01-23 15:47:00,47.3,47.0,29.98,North,0,8.1,8.1,99,0.00,CLR,,0.15,WeatherDisplay:10.37,2013-01-23 23:47:00,
2013-01-23 15:52:00,47.3,47.0,29.98,North,0,1.1,0.0,99,0.00,CLR,,0.15,WeatherDisplay:10.37,2013-01-23 23:52:00,
2013-01-23 15:57:00,47.1,46.9,29.99,SE,135,5.8,0.0,99,0.00,CLR,,0.15,WeatherDisplay:10.37,2013-01-23 23:57:00,
2013-01-23 16:02:00,47.1,46.9,29.99,NE,45,1.1,1.6,99,0.00,CLR,,0.15,WeatherDisplay:10.37,2013-01-24 00:02:00,
2013-01-23 16:07:00,47.1,46.9,29.99,NW,315,2.3,0.0,99,0.00,CLR,,0.15,WeatherDisplay:10.37,2013-01-24 00:07:00,
2013-01-23 16:12:00,47.1,46.9,29.99,North,0,1.1,0.0,99,0.00,CLR,,0.15,WeatherDisplay:10.37,2013-01-24 00:12:00,
2013-01-23 16:17:00,46.9,46.7,29.99,North,0,3.5,3.5,99,0.00,CLR,,0.15,WeatherDisplay:10.37,2013-01-24 00:17:00,
2013-01-23 16:22:00,46.9,46.7,30.00,North,0,3.5,3.5,99,0.00,CLR,,0.15,WeatherDisplay:10.37,2013-01-24 00:22:00,
2013-01-23 16:27:00,46.8,46.5,30.00,NE,45,1.1,0.0,99,0.00,CLR,,0.15,WeatherDisplay:10.37,2013-01-24 00:27:00,
2013-01-23 16:32:00,46.8,46.5,30.00,West,270,0.0,0.0,99,0.00,CLR,,0.15,WeatherDisplay:10.37,2013-01-24 00:32:00,
2013-01-23 16:37:00,46.8,46.5,30.00,NE,45,1.1,0.0,99,0.00,CLR,,0.15,WeatherDisplay:10.37,2013-01-24 00:37:00,
2013-01-23 16:42:00,46.6,46.3,30.00,North,0,0.0,0.0,99,0.00,CLR,,0.15,WeatherDisplay:10.37,2013-01-24 00:42:00,
2013-01-23 16:47:00,46.6,46.3,30.01,West,270,1.1,0.0,99,0.00,CLR,,0.15,WeatherDisplay:10.37,2013-01-24 00:47:00,
2013-01-23 16:52:00,46.4,46.1,30.01,NW,315,1.1,0.0,99,0.00,CLR,,0.15,WeatherDisplay:10.37,2013-01-24 00:52:00,
2013-01-23 16:57:00,46.4,46.1,30.02,NW,315,0.0,0.0,99,0.00,CLR,,0.15,WeatherDisplay:10.37,2013-01-24 00:57:00,
2013-01-23 17:02:00,46.2,46.0,30.02,NW,315,0.0,0.0,99,0.00,CLR,,0.15,WeatherDisplay:10.37,2013-01-24 01:02:00,
2013-01-23 17:08:00,46.2,46.0,30.02,NW,315,0.0,0.0,99,0.00,CLR,,0.15,WeatherDisplay:10.37,2013-01-24 01:08:00,
2013-01-23 17:12:00,46.2,46.0,30.02,NW,315,1.1,0.0,99,0.00,CLR,,0.15,WeatherDisplay:10.37,2013-01-24 01:12:00,
2013-01-23 17:18:00,46.2,46.0,30.02,West,270,0.0,0.0,99,0.00,CLR,,0.15,WeatherDisplay:10.37,2013-01-24 01:18:00,
2013-01-23 17:23:00,46.0,45.8,30.03,West,270,0.0,0.0,99,0.00,CLR,,0.15,WeatherDisplay:10.37,2013-01-24 01:23:00,
2013-01-23 17:28:00,46.0,45.8,30.04,West,270,0.0,0.0,99,0.00,CLR,,0.15,WeatherDisplay:10.37,2013-01-24 01:28:00,
2013-01-23 17:33:00,46.0,45.8,30.04,West,270,0.0,0.0,99,0.00,CLR,,0.15,WeatherDisplay:10.37,2013-01-24 01:33:00,
2013-01-23 17:38:00,45.9,45.6,30.04,South,180,1.1,0.0,99,0.00,CLR,,0.15,WeatherDisplay:10.37,2013-01-24 01:38:00,
2013-01-23 17:43:00,45.9,45.6,30.05,South,180,1.1,0.0,99,0.00,CLR,,0.15,WeatherDisplay:10.37,2013-01-24 01:43:00,
2013-01-23 17:48:00,45.7,45.4,30.05,South,180,0.0,0.0,99,0.01,RA,,0.17,WeatherDisplay:10.37,2013-01-24 01:48:00,
2013-01-23 17:53:00,45.7,45.4,30.05,South,180,0.0,0.0,99,0.01,RA,,0.17,WeatherDisplay:10.37,2013-01-24 01:53:00,
2013-01-23 17:58:00,45.5,45.2,30.05,South,180,0.0,0.0,99,0.01,CLR,,0.17,WeatherDisplay:10.37,2013-01-24 01:58:00,
2013-01-23 18:03:00,45.5,45.2,30.05,South,180,0.0,0.0,99,0.01,CLR,,0.17,WeatherDisplay:10.37,2013-01-24 02:03:00,
2013-01-23 18:08:00,45.5,45.2,30.05,South,180,0.0,0.0,99,0.01,CLR,,0.17,WeatherDisplay:10.37,2013-01-24 02:08:00,
2013-01-23 18:13:00,45.3,45.1,30.05,South,180,1.1,0.0,99,0.01,CLR,,0.17,WeatherDisplay:10.37,2013-01-24 02:13:00,
2013-01-23 18:18:00,45.1,44.9,30.05,South,180,0.0,0.0,99,0.01,CLR,,0.17,WeatherDisplay:10.37,2013-01-24 02:18:00,
2013-01-23 18:23:00,45.0,44.7,30.06,West,270,0.0,0.0,99,0.01,CLR,,0.17,WeatherDisplay:10.37,2013-01-24 02:23:00,
2013-01-23 18:28:00,45.0,44.7,30.06,West,270,0.0,0.0,99,0.01,CLR,,0.17,WeatherDisplay:10.37,2013-01-24 02:28:00,
2013-01-23 18:33:00,45.0,44.7,30.06,South,180,1.1,0.0,99,0.01,CLR,,0.17,WeatherDisplay:10.37,2013-01-24 02:33:00,
2013-01-23 18:38:00,44.8,44.5,30.06,South,180,1.1,0.0,99,0.01,CLR,,0.17,WeatherDisplay:10.37,2013-01-24 02:38:00,
2013-01-23 18:43:00,44.6,44.3,30.06,South,180,1.1,0.0,99,0.01,CLR,,0.17,WeatherDisplay:10.37,2013-01-24 02:43:00,
2013-01-23 18:48:00,44.6,44.3,30.06,SW,225,1.1,0.0,99,0.00,CLR,,0.17,WeatherDisplay:10.37,2013-01-24 02:48:00,
2013-01-23 18:53:00,44.6,44.3,30.07,NW,315,1.6,0.0,99,0.00,CLR,,0.17,WeatherDisplay:10.37,2013-01-24 02:53:00,
2013-01-23 18:58:00,44.4,44.2,30.07,NW,315,0.0,0.0,99,0.00,CLR,,0.17,WeatherDisplay:10.37,2013-01-24 02:58:00,
2013-01-23 19:03:00,44.2,44.0,30.08,NW,315,0.0,0.0,99,0.00,CLR,,0.17,WeatherDisplay:10.37,2013-01-24 03:03:00,
2013-01-23 19:08:00,44.1,43.8,30.08,NW,315,0.0,0.0,99,0.00,CLR,,0.17,WeatherDisplay:10.37,2013-01-24 03:08:00,
2013-01-23 19:13:00,43.9,43.6,30.08,SW,225,0.0,0.0,99,0.00,CLR,,0.17,WeatherDisplay:10.37,2013-01-24 03:13:00,
2013-01-23 19:18:00,43.7,43.4,30.08,South,180,0.0,0.0,99,0.00,CLR,,0.17,WeatherDisplay:10.37,2013-01-24 03:18:00,
2013-01-23 19:23:00,43.7,43.4,30.08,South,180,0.0,0.0,99,0.00,CLR,,0.17,WeatherDisplay:10.37,2013-01-24 03:23:00,
2013-01-23 19:28:00,43.5,43.3,30.08,SW,225,0.0,0.0,99,0.00,CLR,,0.17,WeatherDisplay:10.37,2013-01-24 03:28:00,
2013-01-23 19:34:00,43.5,43.3,30.09,North,0,1.1,0.0,99,0.00,CLR,,0.17,WeatherDisplay:10.37,2013-01-24 03:34:00,
2013-01-23 19:39:00,43.3,43.1,30.09,NE,45,1.1,0.0,99,0.00,RA,,0.17,WeatherDisplay:10.37,2013-01-24 03:39:00,
2013-01-23 19:44:00,43.2,42.9,30.10,NE,45,0.0,0.0,99,0.00,RA,,0.17,WeatherDisplay:10.37,2013-01-24 03:44:00,
2013-01-23 19:49:00,43.0,42.7,30.10,NE,45,0.0,0.0,99,0.00,CLR,,0.17,WeatherDisplay:10.37,2013-01-24 03:49:00,
2013-01-23 19:54:00,42.6,42.4,30.10,NW,315,1.1,0.0,99,0.00,CLR,,0.17,WeatherDisplay:10.37,2013-01-24 03:54:00,
2013-01-23 19:59:00,42.4,42.2,30.10,NE,45,1.1,0.0,99,0.00,CLR,,0.17,WeatherDisplay:10.37,2013-01-24 03:59:00,
2013-01-23 20:04:00,42.3,42.0,30.11,NE,45,0.0,0.0,99,0.00,CLR,,0.17,WeatherDisplay:10.37,2013-01-24 04:04:00,
2013-01-23 20:09:00,42.3,42.0,30.11,West,270,1.1,0.0,99,0.00,CLR,,0.17,WeatherDisplay:10.37,2013-01-24 04:09:00,
2013-01-23 20:14:00,42.3,42.0,30.11,West,270,0.0,0.0,99,0.00,CLR,,0.17,WeatherDisplay:10.37,2013-01-24 04:14:00,
2013-01-23 20:19:00,42.1,41.8,30.11,West,270,0.0,0.0,99,0.00,CLR,,0.17,WeatherDisplay:10.37,2013-01-24 04:19:00,
2013-01-23 20:25:00,41.9,41.6,30.11,SW,225,1.1,0.0,99,0.00,CLR,,0.17,WeatherDisplay:10.37,2013-01-24 04:25:00,
2013-01-23 20:30:00,41.7,41.5,30.11,SW,225,0.0,0.0,99,0.00,CLR,,0.17,WeatherDisplay:10.37,2013-01-24 04:30:00,
2013-01-23 20:35:00,41.7,41.5,30.11,SW,225,1.1,0.0,99,0.00,CLR,,0.17,WeatherDisplay:10.37,2013-01-24 04:35:00,
2013-01-23 20:40:00,41.5,41.3,30.11,SW,225,0.0,0.0,99,0.00,CLR,,0.17,WeatherDisplay:10.37,2013-01-24 04:40:00,
2013-01-23 20:45:00,41.4,41.1,30.11,SW,225,0.0,0.0,99,0.00,CLR,,0.17,WeatherDisplay:10.37,2013-01-24 04:45:00,
2013-01-23 20:50:00,41.4,41.1,30.11,SW,225,1.1,0.0,99,0.00,CLR,,0.17,WeatherDisplay:10.37,2013-01-24 04:50:00,
2013-01-23 20:55:00,41.4,41.1,30.12,SW,225,0.0,0.0,99,0.00,CLR,,0.17,WeatherDisplay:10.37,2013-01-24 04:55:00,
2013-01-23 21:01:00,41.2,40.9,30.12,SW,225,0.0,0.0,99,0.00,CLR,,0.17,WeatherDisplay:10.37,2013-01-24 05:01:00,
2013-01-23 21:02:00,41.2,40.9,30.13,SW,225,0.0,0.0,99,0.00,CLR,,0.17,WeatherDisplay:10.37,2013-01-24 05:02:00,
2013-01-23 21:03:00,41.2,40.9,30.12,SW,225,0.0,0.0,99,0.00,CLR,,0.17,WeatherDisplay:10.37,2013-01-24 05:03:00,
2013-01-23 21:08:00,41.2,40.9,30.13,SW,225,0.0,0.0,99,0.00,CLR,,0.17,WeatherDisplay:10.37,2013-01-24 05:08:00,
2013-01-23 21:13:00,41.2,40.9,30.13,SW,225,0.0,0.0,99,0.00,CLR,,0.17,WeatherDisplay:10.37,2013-01-24 05:13:00,
2013-01-23 21:18:00,41.2,40.9,30.13,SW,225,0.0,0.0,99,0.00,CLR,,0.17,WeatherDisplay:10.37,2013-01-24 05:18:00,
2013-01-23 21:23:00,41.0,40.7,30.13,SW,225,0.0,0.0,99,0.00,CLR,,0.17,WeatherDisplay:10.37,2013-01-24 05:23:00,
2013-01-23 21:28:00,41.0,40.7,30.13,SW,225,1.1,0.0,99,0.00,CLR,,0.17,WeatherDisplay:10.37,2013-01-24 05:28:00,
2013-01-23 21:33:00,41.0,40.7,30.13,SW,225,0.0,0.0,99,0.00,CLR,,0.17,WeatherDisplay:10.37,2013-01-24 05:33:00,
2013-01-23 21:38:00,40.8,40.6,30.14,SW,225,1.1,0.0,99,0.00,CLR,,0.17,WeatherDisplay:10.37,2013-01-24 05:38:00,
2013-01-23 21:43:00,41.0,40.7,30.14,West,270,0.0,0.0,99,0.00,CLR,,0.17,WeatherDisplay:10.37,2013-01-24 05:43:00,
2013-01-23 21:48:00,41.2,40.9,30.14,SW,225,0.0,0.0,99,0.00,CLR,,0.17,WeatherDisplay:10.37,2013-01-24 05:48:00,
2013-01-23 21:53:00,41.2,40.9,30.14,SW,225,0.0,0.0,99,0.00,CLR,,0.17,WeatherDisplay:10.37,2013-01-24 05:53:00,
2013-01-23 21:58:00,41.2,40.9,30.15,SW,225,0.0,0.0,99,0.00,CLR,,0.17,WeatherDisplay:10.37,2013-01-24 05:58:00,
2013-01-23 22:03:00,41.4,41.1,30.15,SW,225,0.0,0.0,99,0.00,CLR,,0.17,WeatherDisplay:10.37,2013-01-24 06:03:00,
2013-01-23 22:08:00,41.4,41.1,30.15,South,180,1.1,1.1,99,0.00,CLR,,0.17,WeatherDisplay:10.37,2013-01-24 06:08:00,
2013-01-23 22:13:00,41.4,41.1,30.15,South,180,1.1,0.0,99,0.00,CLR,,0.17,WeatherDisplay:10.37,2013-01-24 06:13:00,
2013-01-23 22:18:00,41.4,41.1,30.15,South,180,0.0,0.0,99,0.00,CLR,,0.17,WeatherDisplay:10.37,2013-01-24 06:18:00,
2013-01-23 22:23:00,41.4,41.1,30.15,South,180,0.0,0.0,99,0.00,CLR,,0.17,WeatherDisplay:10.37,2013-01-24 06:23:00,
2013-01-23 22:28:00,41.4,41.1,30.15,South,180,0.0,0.0,99,0.00,CLR,,0.17,WeatherDisplay:10.37,2013-01-24 06:28:00,
2013-01-23 22:33:00,41.4,41.1,30.15,SW,225,0.0,0.0,99,0.00,CLR,,0.17,WeatherDisplay:10.37,2013-01-24 06:33:00,
2013-01-23 22:38:00,41.4,41.1,30.15,SW,225,0.0,0.0,99,0.00,CLR,,0.17,WeatherDisplay:10.37,2013-01-24 06:38:00,
2013-01-23 22:43:00,41.4,41.1,30.15,SW,225,0.0,0.0,99,0.00,CLR,,0.17,WeatherDisplay:10.37,2013-01-24 06:43:00,
2013-01-23 22:48:00,41.4,41.1,30.15,SW,225,0.0,0.0,99,0.00,CLR,,0.17,WeatherDisplay:10.37,2013-01-24 06:48:00,
2013-01-23 22:53:00,41.5,41.3,30.15,SW,225,0.0,0.0,99,0.00,CLR,,0.17,WeatherDisplay:10.37,2013-01-24 06:53:00,
2013-01-23 22:58:00,41.5,41.3,30.15,SW,225,0.0,0.0,99,0.00,CLR,,0.17,WeatherDisplay:10.37,2013-01-24 06:58:00,
2013-01-23 23:03:00,41.4,41.1,30.15,SW,225,0.0,0.0,99,0.00,CLR,,0.17,WeatherDisplay:10.37,2013-01-24 07:03:00,
2013-01-23 23:08:00,41.5,41.3,30.15,West,270,0.0,0.0,99,0.00,CLR,,0.17,WeatherDisplay:10.37,2013-01-24 07:08:00,
2013-01-23 23:13:00,41.5,41.3,30.16,West,270,1.1,0.0,99,0.00,CLR,,0.17,WeatherDisplay:10.37,2013-01-24 07:13:00,
2013-01-23 23:18:00,41.5,41.3,30.16,NW,315,1.1,0.0,99,0.00,CLR,,0.17,WeatherDisplay:10.37,2013-01-24 07:18:00,
2013-01-23 23:23:00,41.5,41.3,30.16,NW,315,2.3,2.3,99,0.00,CLR,,0.17,WeatherDisplay:10.37,2013-01-24 07:23:00,
2013-01-23 23:28:00,41.5,41.3,30.16,West,270,1.1,0.0,99,0.00,CLR,,0.17,WeatherDisplay:10.37,2013-01-24 07:28:00,
2013-01-23 23:33:00,41.5,41.3,30.16,West,270,0.0,0.0,99,0.00,CLR,,0.17,WeatherDisplay:10.37,2013-01-24 07:33:00,
2013-01-23 23:38:00,41.5,41.3,30.16,West,270,1.1,0.0,99,0.00,CLR,,0.17,WeatherDisplay:10.37,2013-01-24 07:38:00,
2013-01-23 23:43:00,41.5,41.3,30.16,North,0,1.1,0.0,99,0.00,CLR,,0.17,WeatherDisplay:10.37,2013-01-24 07:43:00,
2013-01-23 23:48:00,41.5,41.3,30.16,West,270,0.0,0.0,99,0.00,CLR,,0.17,WeatherDisplay:10.37,2013-01-24 07:48:00,
2013-01-23 23:53:00,41.5,41.3,30.16,SW,225,1.1,0.0,99,0.00,CLR,,0.17,WeatherDisplay:10.37,2013-01-24 07:53:00,
2013-01-23 23:58:00,41.5,41.3,30.16,SW,225,0.0,0.0,99,0.00,CLR,,0.17,WeatherDisplay:10.37,2013-01-24 07:58:00,